Rezultati u proteklih 7 dana

datum vreme utakmica rezultat
11.08.2018 12:30 Njukastl - Totenhem 1:2 (1:2)
11.08.2018 15:00 Bornmaut - Kardif 2:0 (1:0)
11.08.2018 15:00 Fulam - Kristal Palas 0:2 (0:1)
11.08.2018 15:00 Hadersfild - Čelsi 0:3 (0:2)
11.08.2018 15:00 Votford - Brajton 2:0 (1:0)
11.08.2018 17:30 Volvs - Everton 2:2 (1:1)
datum vreme utakmica rezultat
11.08.2018 20:00 Udineze - Benevento 1:2 (1:0)
11.08.2018 21:15 Đenova - Lece 4:0 (4:0)
datum vreme utakmica rezultat
11.08.2018 17:00 Nant - Monako 1:3 (0:0)
11.08.2018 20:00 Anžer - Nim 3:4 (1:1)
11.08.2018 20:00 Sent Etjen - Gengamp 2:1 (1:0)
11.08.2018 20:00 Monpelje - Dižon 1:2 (1:0)
11.08.2018 20:00 Lil - Ren 3:1 (1:1)
11.08.2018 20:00 Nica - Rems 0:1 (0:1)
datum vreme utakmica rezultat
11.08.2018 12:30 Harts - Seltik 1:0 (0:0)
11.08.2018 15:00 Livingston - Kilmarnok 0:0 (0:0)
11.08.2018 15:00 Madervel - Hamilton 0:1 (0:0)
11.08.2018 15:00 Dandi - Aberdin 0:1 (0:0)
datum vreme utakmica rezultat
11.08.2018 15:00 Notingem Forest - Reding 1:0 (0:0)
11.08.2018 15:00 QPR - Šefild Junajted 1:2 (1:1)
11.08.2018 15:00 Roteram - Ipsvič 1:0 (0:0)
11.08.2018 15:00 Šefild Vensdi - Hul 1:1 (0:1)
11.08.2018 15:00 Stouk - Brentford 1:1 (1:0)
11.08.2018 15:00 Svonsi - Preston 1:0 (1:0)
11.08.2018 15:00 Aston Vila - Vigan 3:2 (1:1)
11.08.2018 15:00 Blekburn - Milvol 0:0 (0:0)
11.08.2018 15:00 Bolton - Bristol Siti 2:2 (0:0)
11.08.2018 15:00 Midlsboro - Birmingem 1:0 (1:0)
11.08.2018 15:00 Norič - VBA 3:4 (1:1)
11.08.2018 17:30 Derbi - Lids 1:4 (1:2)
datum vreme utakmica rezultat
11.08.2018 15:00 Vimbldon - Koventri 0:0 (0:0)
11.08.2018 15:00 Blekpul - Portsmut 1:2 (0:1)
11.08.2018 15:00 Bredford - Barnsli 0:2 (0:1)
11.08.2018 15:00 Bristol Rovers - Akrington 1:2 (0:1)
11.08.2018 15:00 Čarlton - Šruzberi 2:1 (0:0)
11.08.2018 15:00 Donkaster - Vikomb 3:0 (0:0)
11.08.2018 15:00 Gilingem - Barton 3:1 (1:1)
11.08.2018 15:00 Luton - Sanderlend 1:1 (0:1)
11.08.2018 15:00 Oksford - Flitvud Taun 0:2 (0:1)
11.08.2018 15:00 Plimut - Sautend 1:1 (1:1)
11.08.2018 15:00 Ročdejl - Piterboro 1:4 (1:3)
11.08.2018 15:00 Skantorp - Volsol 1:1 (0:0)
datum vreme utakmica rezultat
11.08.2018 15:00 Kembridž - Nots Kaunti 3:2 (0:1)
11.08.2018 15:00 Karlajl - Nortempton 2:2 (1:1)
11.08.2018 15:00 Kolčester - Port Vejl 2:0 (2:0)
11.08.2018 15:00 Kravli - Stivinedž 1:3 (0:0)
11.08.2018 15:00 Forest Grin - Oldam 1:1 (1:0)
11.08.2018 15:00 Linkoln - Svindon 4:1 (2:1)
11.08.2018 15:00 MK Dons - Buri 1:0 (0:0)
11.08.2018 15:00 Maklsfild - Grimzbi 0:2 (0:1)
11.08.2018 15:00 Morekamb - Eksiter 0:2 (0:1)
11.08.2018 15:00 Newport - Kruv 1:0 (1:0)
11.08.2018 15:00 Tranmer - Čeltenam 1:0 (1:0)
11.08.2018 15:00 Jeovil - Mensfild 2:2 (2:2)
datum vreme utakmica rezultat
11.08.2018 12:35 Reksam - Borham Vud 3:0 (1:0)
11.08.2018 15:00 Barnet - Istli 1:2 (0:1)
11.08.2018 15:00 Bromley - Harogejt Taun 1:1 (1:0)
11.08.2018 15:00 Česterfild - Brejntri 1:0 (0:0)
11.08.2018 15:00 Dag & Red - Mejdenhed Junajted 2:2 (0:1)
11.08.2018 15:00 Halifaks - Mejdstoun Junajted 3:0 (1:0)
11.08.2018 15:00 Gejtshed - Dover Atletik 2:1 (1:1)
11.08.2018 15:00 Hartlpul - Ebsflit 0:1 (0:0)
11.08.2018 15:00 Havant - AFC Fylde 1:1 (0:1)
11.08.2018 15:00 Lejton - Barou 2:2 (0:1)
11.08.2018 15:00 Solihul Murs - Aldersot 1:0 (0:0)
11.08.2018 15:00 Saton Junajted - Salford city reds 2:1 (1:1)
datum vreme utakmica rezultat
11.08.2018 13:00 Duisburg - Bohum 0:2 (0:0)
11.08.2018 15:30 Bilefeld - Dinamo Drezden 2:1 (2:0)
datum vreme utakmica rezultat
11.08.2018 18:30 Rize - Kasimpasa 2:3 (1:0)
11.08.2018 18:30 Sivaspor - Alanyaspor 1:0 (0:0)
11.08.2018 20:45 Fenerbahče - Bursa 2:1 (2:1)
datum vreme utakmica rezultat
11.08.2018 18:30 Ajaks - Herakle 1:1 (0:0)
11.08.2018 18:30 Viljem II - VVV Venlo 0:1 (0:1)
11.08.2018 20:00 Cvole - Herenven 2:3 (1:3)
11.08.2018 20:45 PSV - Utreht 4:0 (1:0)
11.08.2018 20:45 Ekselsior - Fortuna Sitard 1:1 (1:0)
datum vreme utakmica rezultat
11.08.2018 18:00 Standard - Serkl Briž 0:0 (0:0)
11.08.2018 20:00 Zulte Varegem - Eupen 4:0 (2:0)
11.08.2018 20:00 Sent Trojden - Lokeren 1:1 (0:0)
11.08.2018 20:30 Muskron - Antverpen 0:1 (0:0)
datum vreme utakmica rezultat
11.08.2018 17:30 Setubal - Aveš 2:0 (1:0)
11.08.2018 20:00 Tondela - Belenenses 0:1 (0:0)
11.08.2018 22:00 Porto - GD Čaves 5:0 (3:0)
datum vreme utakmica rezultat
11.08.2018 17:00 Konkordia Čiajna - AFC Hermannstadt 2:0 (1:0)
11.08.2018 20:00 ACS Sepsi - CSMS Iasi 3:0 (1:0)
datum vreme utakmica rezultat
11.08.2018 15:00 Aloa - Morton 0:2 (0:1)
11.08.2018 15:00 Danfermlajn - Ros Kaunti 1:3 (1:2)
11.08.2018 15:00 Invernis - Air Junajted 0:0 (0:0)
11.08.2018 15:00 Partik - Falkirk 2:1 (2:0)
11.08.2018 15:00 Kvin of Saut - Dandi Junajted 1:2 (0:2)
datum vreme utakmica rezultat
11.08.2018 15:00 Erdri - Montrouz 0:1 (0:0)
11.08.2018 15:00 Arbrot - Stenrir 3:1 (1:1)
11.08.2018 15:00 Brešin - Ist Fajf 1:0 (0:0)
11.08.2018 15:00 Damberton - Forfar 0:2 (0:1)
11.08.2018 15:00 Rejt - Stenhausmir 2:0 (1:0)
datum vreme utakmica rezultat
11.08.2018 15:00 Albion - Piterhed 0:4 (0:1)
11.08.2018 15:00 Kaudenbit - Anan Atletik 1:2 (1:1)
11.08.2018 15:00 Eldžin - Edinburgh C. 1:0 (0:0)
11.08.2018 15:00 Kvins Park - Bervik 1:0 (1:0)
11.08.2018 15:00 Stirling Albion - Klajd 0:3 (0:2)
datum vreme utakmica rezultat
11.08.2018 15:00 Klermon - Mec 2:3 (1:0)
datum vreme utakmica rezultat
11.08.2018 16:00 Hobro - Odenze 3:2 (3:0)
datum vreme utakmica rezultat
11.08.2018 16:00 Dalkurd FF - Malme 0:1 (0:1)
11.08.2018 18:00 Erbro - Bromapojkarna 0:1 (0:0)
datum vreme utakmica rezultat
11.08.2018 16:00 Honka - Tps 3:0 (2:0)
11.08.2018 16:00 Vps - SJK 0:2 (0:1)
datum vreme utakmica rezultat
11.08.2018 19:00 Lugano - Grashopers 2:2 (1:0)
datum vreme utakmica rezultat
11.08.2018 17:30 Vil - Arau 2:0 (1:0)
11.08.2018 18:00 Vintertur - Krien 1:1 (0:0)
11.08.2018 19:00 Lozana - Rapperswil-Jona 1:0 (0:0)
datum vreme utakmica rezultat
11.08.2018 17:00 Pribram - Dukla 4:0 (0:0)
11.08.2018 17:00 Opava - Liberec 1:1 (0:0)
11.08.2018 17:00 Jablonec - MFK Karvina 4:1 (2:0)
11.08.2018 19:00 Viktorija Plzen - FC Fastav Zlin 1:0 (0:0)
datum vreme utakmica rezultat
11.08.2018 17:30 Gorica - Inter Zapresic 2:3 (1:1)
11.08.2018 21:00 NK Lokomotiva Zagreb - Rudes 1:0 (0:0)
datum vreme utakmica rezultat
11.08.2018 18:00 Pogon - Krakovia 1:1 (1:0)
datum vreme utakmica rezultat
11.08.2018 16:00 Jaro - Ktp 0:1 (0:0)
11.08.2018 16:00 KPV - HIFK 2:2 (1:0)
11.08.2018 16:00 AC Kajaani - Jyvaskyla 0:1 (0:1)
datum vreme utakmica rezultat
11.08.2018 14:00 Halmštad - Gefle 1:2 (0:1)
11.08.2018 16:00 Varbergs BoIS FC - AFC Eskilstuna 1:1 (0:1)
11.08.2018 16:00 Brage - Ester 0:4 (0:1)
datum vreme utakmica rezultat
11.08.2018 18:30 Šahtjor - Vorskla Poltava 4:1 (0:1)
datum vreme utakmica rezultat
11.08.2018 21:00 Ceara - Atletiko Paranaense 0:0 (0:0)
11.08.2018 00:00 EC Bahia - America MG 1:0 (0:0)
datum vreme utakmica rezultat
11.08.2018 06:00 Sapporo - Cerezo Osaka 1:1 (1:1)
11.08.2018 11:00 Šimicu - Kavasaki Frontale 1:2 (1:1)
11.08.2018 11:00 Nagoja - Kašima Antlers 4:2 (1:0)
11.08.2018 12:00 Kašiva Rejsol - Sendai 0:2 (0:0)
11.08.2018 12:00 Šonan - Jokohama 0:1 (0:0)
11.08.2018 12:00 Vissel kobe - Džubilo Ivata 2:1 (1:0)
11.08.2018 12:00 Hirošima - V-Varen Nagasaki 2:0 (1:0)
11.08.2018 12:00 Tosu - Urava 1:0 (0:0)
datum vreme utakmica rezultat
11.08.2018 15:30 Yenisey - CSKA Moskva 1:1 (0:0)
11.08.2018 18:00 Spartak Moskva - Anži 1:0 (0:0)
11.08.2018 20:30 Rostov - Krila Sovjetov 0:1 (0:1)
datum vreme utakmica rezultat
11.08.2018 17:00 Altah - Insbruk 1:2 (1:2)
11.08.2018 17:00 Salcburg - Austrija Beč 2:0 (1:0)
datum vreme utakmica rezultat
11.08.2018 19:00 SKF Sered - Zlate Moravce 2:0 (1:0)
11.08.2018 19:00 FK Senica - Podbrezova 1:1 (0:0)
11.08.2018 19:00 Spartak Trnava - Michalovce 3:0 (1:0)
11.08.2018 19:00 Dunajska Streda - Ružomberok 2:2 (1:1)
datum vreme utakmica rezultat
11.08.2018 20:00 Krsko - Celje Publikum 1:1 (1:0)
datum vreme utakmica rezultat
11.08.2018 17:45 Beroe - Botev Plovdiv 2:1 (0:0)
11.08.2018 20:00 Dunav Ruse - Levski 1:2 (0:0)
datum vreme utakmica rezultat
11.08.2018 19:00 FK Proleter Novi Sad - Napredak 1:1 (1:0)
11.08.2018 20:00 Dinamo Vranje - Mladost Lučani 1:3 (0:1)
11.08.2018 20:00 Rad - FK Radnik Surdulica 3:1 (2:1)
11.08.2018 20:00 Ma?va abac - Vojvodina 0:0 (0:0)
11.08.2018 20:00 FK Backa Palanka - Čukarički 1:1 (0:0)
datum vreme utakmica rezultat
11.08.2018 19:30 Kisvarda FC - Ferencvaroš 0:2 (0:0)
11.08.2018 19:30 Haladaš Sombatelj - Puškaš Akademija 2:1 (0:0)
11.08.2018 19:30 MTK - Diosđor 1:0 (0:0)
datum vreme utakmica rezultat
11.08.2018 17:00 Roselare - Mehelen 2:2 (1:1)
11.08.2018 20:30 KVSK Lommel - Tubize 2:2 (0:1)
datum vreme utakmica rezultat
11.08.2018 18:30 Boluspor - Osmanlispor FK 1:0 (1:0)
11.08.2018 20:45 Adana - Elazigspor 1:1 (0:0)
11.08.2018 20:45 Altaj - Umraniyespor 1:0 (0:0)
datum vreme utakmica rezultat
11.08.2018 12:15 Estoril - Porto B 4:0 (2:0)
11.08.2018 19:00 Benfika B - Leišoiš 2:1 (0:0)
11.08.2018 19:00 Oliveirense - Akademika 1:1 (0:1)
datum vreme utakmica rezultat
11.08.2018 12:00 FK Palanga - Atlantas 2:0 (1:0)
11.08.2018 12:00 FK Kauno Zalgiris - FC Stumbras 0:2 (0:0)
datum vreme utakmica rezultat
11.08.2018 10:00 Malaga - Kordoba 1:0 (0:0)
11.08.2018 14:30 Verder - Viljareal 2:3 (1:0)
11.08.2018 15:30 Hanover - Atletik Bilbao 2:0 (2:0)
11.08.2018 15:30 Nirnberg - Valjadolid 1:0 (1:0)
11.08.2018 15:30 Borusija Menhengladbah - Espanjol 1:3 (0:1)
11.08.2018 15:30 Hofenhajm - Eibar 1:1 (0:0)
11.08.2018 16:00 Šalke - Fiorentina 3:0 (0:0)
11.08.2018 17:00 Štutgart - Real Sosijedad 1:0 (1:0)
11.08.2018 17:45 Asteras Tripolis - Atromitos 1:1 (0:1)
11.08.2018 18:00 Ksanti - Aris 0:1 (0:1)
11.08.2018 18:00 Cult. Leonesa - Santander 1:2 (0:1)
11.08.2018 18:00 Panionios - Panetolikos 1:0 (1:0)
11.08.2018 18:45 Numansija - Real Madrid B 0:2 (0:1)
11.08.2018 19:00 Barakaldo - Sociedad B 2:2 (2:0)
11.08.2018 19:00 La Korunja - Ovijedo 1:1 (0:0)
11.08.2018 19:00 Alaveš - Huesca 1:2 (0:1)
11.08.2018 19:30 Volfsburg - Napoli 3:1 (1:0)
11.08.2018 19:30 Selta - Majnc 1:2 (1:1)
11.08.2018 20:00 Hetafe - Đirona 3:3 (0:2)
11.08.2018 20:00 Leganes - Valjekano 2:0 (1:0)
11.08.2018 20:30 Valensija - Bajer Leverkuzen 3:0 (2:0)
11.08.2018 20:30 Majorka - Alkorkon 3:2 (2:0)
11.08.2018 20:30 Algeciras - Linense 0:1 (0:0)
11.08.2018 21:00 Saragosa - Levante 1:2 (1:1)
11.08.2018 21:00 Real Madrid - Milan 3:1 (2:1)
11.08.2018 21:00 Atletiko Madrid - Inter Milan 0:1 (0:1)
datum vreme utakmica rezultat
11.08.2018 02:00 Puebla - Verakruz 1:2 (0:0)
11.08.2018 04:00 Morelia - Necaxa 2:1 (1:0)
11.08.2018 00:00 Lobos BUAP - Atlas 0:0 (0:0)
datum vreme utakmica rezultat
11.08.2018 02:00 Tigre - San Lorenco 2:2 (2:2)
11.08.2018 18:15 Gimnasia LP - Argentinos Juniors 1:0 (1:0)
11.08.2018 20:30 Union de Santa Fe - CA Aldosivi 1:0 (0:0)
11.08.2018 22:45 Patronato Parana - Kolon 0:0 (0:0)
datum vreme utakmica rezultat
11.08.2018 13:30 Veiše Flensburg - Hanover II 1:1 (0:0)
11.08.2018 15:00 Oldenburg - Sent Pauli II 2:0 (0:0)
11.08.2018 16:00 Jeddeloh - Lupo-Martini Wolfsburg 1:1 (0:0)
datum vreme utakmica rezultat
11.08.2018 15:00 Billericay - Wealdstone 1:0 (1:0)
11.08.2018 15:00 Chippenham - Welling 1:4 (1:3)
11.08.2018 15:00 Dartford - Hemel Hempstead 0:0 (0:0)
11.08.2018 15:00 Dulwich - Konkord Rendžers 0:1 (0:1)
11.08.2018 15:00 Istborn - Truro City 2:2 (1:2)
11.08.2018 15:00 Gločester Siti - Slough 1:2 (0:1)
11.08.2018 15:00 Hampton&richmond - Bat Siti 0:1 (0:0)
11.08.2018 15:00 Hungerford Town FC - Chelmsford City 0:6 (0:1)
11.08.2018 15:00 Torki - Ist Turok 2:0 (1:0)
11.08.2018 15:00 Veston Super Mare - Sent Albans 2:3 (2:2)
11.08.2018 15:00 Voking - Oksford Siti 3:2 (1:1)
datum vreme utakmica rezultat
11.08.2018 15:00 Blit Spartans - Čester 8:1 (3:0)
11.08.2018 15:00 Brekli Taun - Darlington 2:4 (1:4)
11.08.2018 15:00 Curzon Ashton FC - Hereford 0:1 (0:0)
11.08.2018 15:00 FK Junajted of Mančester - Boston Junajted 0:3 (0:1)
11.08.2018 15:00 Gisli - Telford 1:1 (0:0)
11.08.2018 15:00 Kiderminster - Ashton Utd 3:3 (0:2)
11.08.2018 15:00 Lemington - Bredford Park Avenju 4:2 (1:0)
11.08.2018 15:00 Nuneaton - Chorley 0:1 (0:1)
11.08.2018 15:00 Sautport - Stokport 0:1 (0:0)
11.08.2018 15:00 Spennymoor Town - Altrinkam 4:4 (2:2)
11.08.2018 15:00 Jork - Alfreton 1:2 (0:2)
datum vreme utakmica rezultat
11.08.2018 16:00 Polonija Bytom - Stal mielec 1:2 (0:1)
11.08.2018 17:00 Lks lodz - Olštin 1:0 (0:0)
11.08.2018 17:00 Wigry Suwalki - Chrobry Glogow 0:1 (0:1)
11.08.2018 17:45 GKS Jastrzebie - Chojniczanka Chojnice 0:0 (0:0)
11.08.2018 18:00 Podbeskidze Bjelsko Bjala - Garbarnija Krakov 0:0 (0:0)
11.08.2018 19:00 MKS Puszcza Niepolomice - Warta poznan 0:1 (0:0)
11.08.2018 19:00 GKS Tychy - Termalica BB Nieciecza 2:1 (2:1)
11.08.2018 19:10 Sandecja Nowy Sacz - Katowice 1:0 (0:0)
datum vreme utakmica rezultat
11.08.2018 15:00 Ards - Glentoran 0:2 (0:2)
11.08.2018 15:00 Kliftonvil - Kolrejn 1:2 (0:0)
11.08.2018 15:00 Vorenpoint Taun - Glenavon 2:4 (1:3)
11.08.2018 15:00 Krusejders Belfast - Balimena Junajted 2:2 (0:1)
datum vreme utakmica rezultat
11.08.2018 14:00 Haleser FC - Kajzerslautern 2:0 (1:0)
11.08.2018 14:00 SG Sonenhof Grobaspah - Osnabrik 0:0 (0:0)
11.08.2018 14:00 Mepen - Alen 1:0 (0:0)
11.08.2018 14:00 Unterhahing - Hanza 2:1 (1:0)
11.08.2018 14:00 Wehen - Braunšvajg 3:3 (0:1)
11.08.2018 14:00 Cvikau - Fort. Koln 1:0 (0:0)
datum vreme utakmica rezultat
11.08.2018 14:00 1.FC Kaan-Marienborn - Esen 1:4 (1:1)
11.08.2018 14:00 Koln II - TV Herkenrath 3:3 (2:1)
11.08.2018 14:00 Fortuna Dizeldorf II - SV Straelen 1:1 (1:0)
11.08.2018 14:00 Wuppertaler - Lippstadt 1:2 (0:0)
11.08.2018 14:00 SV Rodinghausen - Verl 0:0 (0:0)
datum vreme utakmica rezultat
11.08.2018 01:30 Boa - Londrina 1:0 (0:0)
11.08.2018 02:30 Koritiba - Sampaio Correa 0:0 (0:0)
11.08.2018 21:30 Guarani - Fortaleza 2:3 (2:0)
11.08.2018 21:30 Krisiuma - Atletiko Go. 1:1 (0:0)
11.08.2018 21:30 CRB - Oeste SP 0:1 (0:0)
11.08.2018 21:30 Sao bento - Brasil de Pelotas 1:1 (1:0)
11.08.2018 00:00 Juventude - Figueirense 0:0 (0:0)